Time;durP1;ratioP1;P1;durP2;ratioP2;P2;SDS_P1;SDS_P2;PMS_P1;PMS_P2;Temp;Humidity;BMP_temperature;BMP_pressure;BME280_temperature;BME280_humidity;BME280_pressure;Samples;Min_cycle;Max_cycle;Signal;HPM_P1;HPM_P2
2022/07/09 00:00:54;;;;;;;6.63;5.65;;;;;;;;;;5036124;27;100028;-72
2022/07/09 00:03:20;;;;;;;9.00;5.05;;;;;;;;;;5039769;27;100612;-72
2022/07/09 00:05:47;;;;;;;10.20;5.93;;;;;;;;;;5038136;27;98667;-73
2022/07/09 00:08:13;;;;;;;6.28;5.25;;;;;;;;;;5036044;27;99328;-74
2022/07/09 00:10:40;;;;;;;10.35;6.32;;;;;;;;;;5031383;27;100205;-74
2022/07/09 00:13:06;;;;;;;10.02;6.43;;;;;;;;;;5036541;27;100655;-72
2022/07/09 00:15:32;;;;;;;9.90;5.97;;;;;;;;;;5039237;27;99703;-72
2022/07/09 00:17:59;;;;;;;10.05;6.32;;;;;;;;;;5028949;27;98575;-74
2022/07/09 00:20:25;;;;;;;13.15;6.38;;;;;;;;;;5028630;27;99091;-74
2022/07/09 00:22:52;;;;;;;8.55;6.50;;;;;;;;;;5030214;27;100155;-74
2022/07/09 00:25:18;;;;;;;10.63;7.43;;;;;;;;;;5029072;27;98580;-74
2022/07/09 00:27:44;;;;;;;11.43;6.57;;;;;;;;;;5028582;27;100136;-72
2022/07/09 00:30:11;;;;;;;12.32;7.00;;;;;;;;;;5038854;27;100117;-72
2022/07/09 00:32:37;;;;;;;12.35;6.95;;;;;;;;;;5030989;27;97910;-72
2022/07/09 00:35:04;;;;;;;11.50;6.75;;;;;;;;;;5030201;27;98564;-72
2022/07/09 00:37:30;;;;;;;11.95;6.63;;;;;;;;;;5027892;27;100033;-72
2022/07/09 00:39:56;;;;;;;13.15;6.50;;;;;;;;;;5031081;27;101235;-72
2022/07/09 00:42:24;;;;;;;15.38;7.47;;;;;;;;;;5024114;27;99571;-72
2022/07/09 00:44:51;;;;;;;15.77;7.70;;;;;;;;;;5025425;27;99061;-72
2022/07/09 00:47:17;;;;;;;12.05;7.50;;;;;;;;;;5026586;27;102425;-72
2022/07/09 00:49:44;;;;;;;17.13;6.85;;;;;;;;;;5029279;27;100522;-72
2022/07/09 00:52:14;;;;;;;13.90;7.15;;;;;;;;;;5024681;27;99299;-72
2022/07/09 00:54:40;;;;;;;9.25;6.50;;;;;;;;;;5026615;27;100129;-72
2022/07/09 00:57:09;;;;;;;9.88;6.82;;;;;;;;;;5032384;27;100465;-72
2022/07/09 00:59:36;;;;;;;12.38;7.82;;;;;;;;;;5022767;27;100470;-73
2022/07/09 01:02:02;;;;;;;12.45;8.60;;;;;;;;;;5031876;27;100197;-73
2022/07/09 01:04:29;;;;;;;11.95;8.27;;;;;;;;;;5037918;27;99336;-72
2022/07/09 01:06:57;;;;;;;9.93;8.32;;;;;;;;;;5048489;27;99925;-74
2022/07/09 01:09:28;;;;;;;9.35;8.07;;;;;;;;;;5040687;27;100206;-72
2022/07/09 01:11:55;;;;;;;10.52;7.68;;;;;;;;;;5036258;27;99151;-72
2022/07/09 01:14:21;;;;;;;11.13;8.15;;;;;;;;;;5042814;27;99195;-74
2022/07/09 01:16:56;;;;;;;12.38;8.45;;;;;;;;;;5030615;27;100822;-72
2022/07/09 01:19:22;;;;;;;14.43;9.25;;;;;;;;;;5037346;27;98494;-72
2022/07/09 01:21:49;;;;;;;15.13;10.82;;;;;;;;;;5028173;27;98624;-73
2022/07/09 01:24:15;;;;;;;17.85;11.60;;;;;;;;;;5027305;27;98965;-73
2022/07/09 01:26:41;;;;;;;23.65;12.73;;;;;;;;;;5044252;27;100156;-73
2022/07/09 01:29:08;;;;;;;21.42;13.80;;;;;;;;;;5027302;27;100292;-72
2022/07/09 01:31:35;;;;;;;23.10;14.07;;;;;;;;;;5027741;27;98626;-73
2022/07/09 01:34:01;;;;;;;20.17;13.65;;;;;;;;;;5036784;27;99021;-73
2022/07/09 01:36:28;;;;;;;30.83;16.30;;;;;;;;;;5036124;27;99278;-73
2022/07/09 01:38:54;;;;;;;25.27;16.17;;;;;;;;;;5044664;27;98619;-73
2022/07/09 01:41:21;;;;;;;26.90;16.88;;;;;;;;;;5046455;27;99912;-73
2022/07/09 01:43:47;;;;;;;22.88;16.52;;;;;;;;;;5030977;27;98484;-73
2022/07/09 01:46:13;;;;;;;25.35;16.50;;;;;;;;;;5032278;27;100172;-73
2022/07/09 01:48:42;;;;;;;22.98;16.48;;;;;;;;;;5050265;27;99408;-73
2022/07/09 01:51:11;;;;;;;21.90;17.05;;;;;;;;;;5042662;27;98616;-73
2022/07/09 01:53:39;;;;;;;29.75;18.10;;;;;;;;;;5030562;27;99774;-73
2022/07/09 01:56:06;;;;;;;26.65;18.50;;;;;;;;;;5030704;27;99149;-73
2022/07/09 01:58:33;;;;;;;25.88;18.23;;;;;;;;;;5047339;27;99942;-73
2022/07/09 02:01:02;;;;;;;28.25;20.15;;;;;;;;;;5030572;27;100070;-73
2022/07/09 02:03:29;;;;;;;35.80;20.80;;;;;;;;;;5034049;27;99498;-73
2022/07/09 02:05:56;;;;;;;30.83;21.30;;;;;;;;;;5030104;27;99170;-73
2022/07/09 02:08:22;;;;;;;37.35;23.30;;;;;;;;;;5045600;27;99513;-73
2022/07/09 02:10:49;;;;;;;35.58;22.45;;;;;;;;;;5034101;27;99115;-73
2022/07/09 02:13:17;;;;;;;36.42;22.42;;;;;;;;;;5035547;27;99359;-73
2022/07/09 02:15:43;;;;;;;37.30;22.30;;;;;;;;;;5047053;27;100194;-73
2022/07/09 02:18:10;;;;;;;31.85;22.90;;;;;;;;;;5030151;27;100888;-73
2022/07/09 02:20:37;;;;;;;31.77;21.77;;;;;;;;;;5040268;27;100181;-73
2022/07/09 02:23:04;;;;;;;34.50;23.38;;;;;;;;;;5038047;27;99191;-73
2022/07/09 02:25:30;;;;;;;35.53;24.02;;;;;;;;;;5033951;27;98611;-73
2022/07/09 02:27:56;;;;;;;37.17;25.05;;;;;;;;;;5037654;27;100210;-73
2022/07/09 02:30:23;;;;;;;37.55;24.75;;;;;;;;;;5031378;27;98564;-73
2022/07/09 02:32:49;;;;;;;35.60;24.23;;;;;;;;;;5029577;27;99461;-73
2022/07/09 02:35:15;;;;;;;44.55;27.15;;;;;;;;;;5043287;27;99405;-73
2022/07/09 02:37:42;;;;;;;36.33;26.10;;;;;;;;;;5021851;27;100012;-73
2022/07/09 02:40:08;;;;;;;31.92;23.83;;;;;;;;;;5030425;27;99269;-73
2022/07/09 02:42:36;;;;;;;45.33;27.20;;;;;;;;;;5044273;27;101539;-72
2022/07/09 02:45:03;;;;;;;38.42;26.17;;;;;;;;;;5031553;27;98516;-73
2022/07/09 02:47:29;;;;;;;37.58;26.73;;;;;;;;;;5033855;27;100286;-73
2022/07/09 02:49:56;;;;;;;41.85;26.65;;;;;;;;;;5046583;27;98649;-73
2022/07/09 02:52:23;;;;;;;36.92;24.45;;;;;;;;;;5030616;27;100189;-73
2022/07/09 02:54:49;;;;;;;33.67;23.45;;;;;;;;;;5030215;27;100176;-73
2022/07/09 02:57:16;;;;;;;40.58;27.35;;;;;;;;;;5047549;27;98587;-73
2022/07/09 02:59:42;;;;;;;41.40;26.45;;;;;;;;;;5036604;27;100135;-73
2022/07/09 03:02:08;;;;;;;36.45;27.13;;;;;;;;;;5029321;27;100311;-73
2022/07/09 03:04:35;;;;;;;39.17;25.48;;;;;;;;;;5029955;27;99697;-73
2022/07/09 03:07:01;;;;;;;40.45;28.13;;;;;;;;;;5040488;27;100047;-73
2022/07/09 03:09:28;;;;;;;40.10;27.23;;;;;;;;;;5040786;27;99890;-73
2022/07/09 03:11:55;;;;;;;37.78;26.92;;;;;;;;;;5050318;27;100390;-73
2022/07/09 03:14:21;;;;;;;41.78;28.42;;;;;;;;;;5040942;27;99221;-73
2022/07/09 03:16:48;;;;;;;47.08;29.02;;;;;;;;;;5044640;27;99306;-73
2022/07/09 03:19:14;;;;;;;38.53;28.42;;;;;;;;;;5041651;27;100545;-73
2022/07/09 03:21:40;;;;;;;38.83;28.52;;;;;;;;;;5029803;27;100269;-73
2022/07/09 03:24:08;;;;;;;36.05;27.10;;;;;;;;;;5036844;27;97765;-73
2022/07/09 03:26:35;;;;;;;41.58;27.45;;;;;;;;;;5046385;27;99152;-73
2022/07/09 03:29:02;;;;;;;41.58;26.90;;;;;;;;;;5033188;27;100147;-73
2022/07/09 03:31:28;;;;;;;45.67;28.88;;;;;;;;;;5039812;27;100031;-73
2022/07/09 03:33:55;;;;;;;51.85;28.13;;;;;;;;;;5034435;27;99407;-73
2022/07/09 03:36:21;;;;;;;39.53;27.17;;;;;;;;;;5039061;27;98470;-73
2022/07/09 03:38:47;;;;;;;44.08;28.67;;;;;;;;;;5048661;27;99992;-73
2022/07/09 03:41:14;;;;;;;40.17;28.67;;;;;;;;;;5041656;27;99381;-73
2022/07/09 03:43:40;;;;;;;40.95;28.75;;;;;;;;;;5037159;27;98588;-73
2022/07/09 03:46:06;;;;;;;42.42;27.02;;;;;;;;;;5027216;27;99143;-73
2022/07/09 03:48:34;;;;;;;40.17;27.13;;;;;;;;;;5036060;27;98551;-73
2022/07/09 03:51:01;;;;;;;38.00;28.15;;;;;;;;;;5032200;27;98536;-73
2022/07/09 03:53:27;;;;;;;46.47;28.67;;;;;;;;;;5027837;27;99310;-73
2022/07/09 03:55:54;;;;;;;43.35;29.05;;;;;;;;;;5035377;27;99327;-73
2022/07/09 03:58:20;;;;;;;48.88;29.98;;;;;;;;;;5037322;27;99908;-73
2022/07/09 04:00:46;;;;;;;38.60;28.08;;;;;;;;;;5028216;27;100154;-73
2022/07/09 04:03:13;;;;;;;42.03;27.33;;;;;;;;;;5037280;27;98555;-73
2022/07/09 04:05:41;;;;;;;46.63;26.50;;;;;;;;;;5027411;27;99261;-73
2022/07/09 04:08:07;;;;;;;33.40;25.35;;;;;;;;;;5029417;27;100172;-73
2022/07/09 04:10:34;;;;;;;42.47;26.10;;;;;;;;;;5039751;27;98526;-73
2022/07/09 04:13:00;;;;;;;38.47;25.02;;;;;;;;;;5040128;27;99943;-73
2022/07/09 04:15:26;;;;;;;35.20;26.67;;;;;;;;;;5029272;27;98632;-73
2022/07/09 04:17:53;;;;;;;44.05;29.17;;;;;;;;;;5046443;27;99997;-73
2022/07/09 04:20:19;;;;;;;39.15;29.58;;;;;;;;;;5033841;27;100040;-73
2022/07/09 04:22:46;;;;;;;43.75;27.45;;;;;;;;;;5028770;27;98701;-72
2022/07/09 04:25:12;;;;;;;45.42;28.60;;;;;;;;;;5040654;27;100066;-72
2022/07/09 04:27:39;;;;;;;37.53;28.27;;;;;;;;;;5047531;27;100153;-73
2022/07/09 04:30:09;;;;;;;35.88;27.75;;;;;;;;;;5030563;27;99421;-73
2022/07/09 04:32:35;;;;;;;34.60;26.08;;;;;;;;;;5047489;27;100169;-73
2022/07/09 04:35:02;;;;;;;36.65;27.88;;;;;;;;;;5050935;27;100131;-73
2022/07/09 04:37:29;;;;;;;36.42;25.65;;;;;;;;;;5043570;27;100123;-73
2022/07/09 04:39:55;;;;;;;40.08;26.88;;;;;;;;;;5027039;27;99489;-73
2022/07/09 04:42:22;;;;;;;38.00;25.98;;;;;;;;;;5039342;27;98704;-73
2022/07/09 04:44:48;;;;;;;32.72;25.42;;;;;;;;;;5039182;27;99381;-73
2022/07/09 04:47:14;;;;;;;38.33;26.33;;;;;;;;;;5027806;27;99346;-73
2022/07/09 04:49:41;;;;;;;31.80;24.05;;;;;;;;;;5026510;27;99378;-73
2022/07/09 04:52:07;;;;;;;31.02;23.55;;;;;;;;;;5035085;27;99150;-73
2022/07/09 04:54:33;;;;;;;31.65;23.25;;;;;;;;;;5027902;27;99526;-73
2022/07/09 04:57:00;;;;;;;28.30;22.20;;;;;;;;;;5028679;27;99869;-73
2022/07/09 04:59:26;;;;;;;27.63;21.67;;;;;;;;;;5037862;27;99501;-73
2022/07/09 05:01:53;;;;;;;29.80;21.52;;;;;;;;;;5043825;27;98334;-73
2022/07/09 05:04:19;;;;;;;26.40;19.98;;;;;;;;;;5028210;27;98560;-73
2022/07/09 05:06:46;;;;;;;24.88;19.63;;;;;;;;;;5042458;27;100253;-73
2022/07/09 05:09:12;;;;;;;22.88;19.67;;;;;;;;;;5038724;27;99471;-73
2022/07/09 05:11:38;;;;;;;27.60;18.42;;;;;;;;;;5033026;27;100849;-73
2022/07/09 05:14:05;;;;;;;21.38;17.30;;;;;;;;;;5029195;27;99475;-73
2022/07/09 05:16:31;;;;;;;18.55;16.73;;;;;;;;;;5030218;27;98580;-73
2022/07/09 05:18:58;;;;;;;17.27;15.38;;;;;;;;;;5027703;27;100003;-73
2022/07/09 05:21:25;;;;;;;20.85;15.68;;;;;;;;;;5027766;27;100106;-73
2022/07/09 05:23:51;;;;;;;19.67;15.07;;;;;;;;;;5026552;27;99110;-73
2022/07/09 05:26:17;;;;;;;18.17;15.32;;;;;;;;;;5028364;27;98780;-73
2022/07/09 05:28:44;;;;;;;18.08;14.75;;;;;;;;;;5048031;27;98639;-73
2022/07/09 05:31:10;;;;;;;20.08;14.07;;;;;;;;;;5029662;27;99048;-73
2022/07/09 05:33:56;;;;;;;14.70;13.38;;;;;;;;;;5031806;27;100714;-73
2022/07/09 05:36:23;;;;;;;17.02;13.40;;;;;;;;;;5029024;27;98697;-73
2022/07/09 05:38:49;;;;;;;13.75;11.70;;;;;;;;;;5030467;27;99919;-73
2022/07/09 05:41:15;;;;;;;12.90;11.52;;;;;;;;;;5034725;27;98538;-73
2022/07/09 05:43:42;;;;;;;13.25;10.88;;;;;;;;;;5028255;27;100033;-73
2022/07/09 05:46:08;;;;;;;12.13;10.15;;;;;;;;;;5030410;27;100160;-73
2022/07/09 05:48:35;;;;;;;16.52;10.40;;;;;;;;;;5026758;27;99927;-76
2022/07/09 05:51:02;;;;;;;11.57;10.15;;;;;;;;;;5029948;27;99160;-72
2022/07/09 05:53:28;;;;;;;11.23;10.13;;;;;;;;;;5036082;27;100201;-73
2022/07/09 05:55:55;;;;;;;12.05;10.80;;;;;;;;;;5025849;27;100258;-73
2022/07/09 05:58:21;;;;;;;14.23;11.38;;;;;;;;;;5022118;27;100980;-73
2022/07/09 06:00:48;;;;;;;17.25;14.55;;;;;;;;;;5036349;27;99704;-73
2022/07/09 06:03:14;;;;;;;13.80;12.40;;;;;;;;;;5039665;27;99024;-73
2022/07/09 06:05:40;;;;;;;18.75;13.32;;;;;;;;;;5027914;27;100807;-73
2022/07/09 06:08:09;;;;;;;12.20;10.27;;;;;;;;;;5029262;27;98705;-73
2022/07/09 06:10:36;;;;;;;11.18;9.45;;;;;;;;;;5033234;27;99432;-73
2022/07/09 06:13:02;;;;;;;10.88;7.75;;;;;;;;;;5027828;27;100409;-73
2022/07/09 06:15:28;;;;;;;9.52;7.35;;;;;;;;;;5030464;27;97977;-73
2022/07/09 06:17:54;;;;;;;7.68;6.90;;;;;;;;;;5034548;27;99232;-73
2022/07/09 06:20:21;;;;;;;6.40;5.93;;;;;;;;;;5029914;27;99302;-73
2022/07/09 06:22:47;;;;;;;8.57;6.03;;;;;;;;;;5030488;27;99574;-72
2022/07/09 06:25:14;;;;;;;6.65;5.75;;;;;;;;;;5030204;27;99739;-73
2022/07/09 06:27:41;;;;;;;6.95;5.40;;;;;;;;;;5036783;27;99979;-73
2022/07/09 06:30:08;;;;;;;5.13;4.68;;;;;;;;;;5029310;27;100009;-73
2022/07/09 06:32:35;;;;;;;5.70;4.50;;;;;;;;;;5033827;27;99942;-73
2022/07/09 06:35:02;;;;;;;4.60;4.18;;;;;;;;;;5036747;27;98688;-73
2022/07/09 06:37:29;;;;;;;4.75;3.55;;;;;;;;;;5031306;27;99914;-73
2022/07/09 06:39:56;;;;;;;5.18;3.97;;;;;;;;;;5032619;27;98504;-73
2022/07/09 06:42:23;;;;;;;5.35;4.10;;;;;;;;;;5028813;27;100705;-73
2022/07/09 06:44:57;;;;;;;4.60;3.72;;;;;;;;;;5029995;27;99855;-73
2022/07/09 06:47:24;;;;;;;6.85;4.72;;;;;;;;;;5031413;27;99659;-73
2022/07/09 06:49:50;;;;;;;4.95;4.30;;;;;;;;;;5032544;27;100270;-73
2022/07/09 06:52:17;;;;;;;6.25;5.22;;;;;;;;;;5030852;27;99559;-73
2022/07/09 06:54:43;;;;;;;6.72;5.13;;;;;;;;;;5029235;27;100766;-73
2022/07/09 06:57:10;;;;;;;5.18;4.68;;;;;;;;;;5031682;27;99176;-73
2022/07/09 06:59:36;;;;;;;9.85;5.28;;;;;;;;;;5034602;27;101053;-73
2022/07/09 07:02:02;;;;;;;5.50;5.10;;;;;;;;;;5030537;27;98582;-73
2022/07/09 07:04:29;;;;;;;9.02;5.43;;;;;;;;;;5034376;27;99087;-73
2022/07/09 07:06:55;;;;;;;8.00;7.03;;;;;;;;;;5040950;27;98592;-73
2022/07/09 07:09:22;;;;;;;8.07;7.00;;;;;;;;;;5028063;27;99112;-73
2022/07/09 07:11:48;;;;;;;9.27;6.80;;;;;;;;;;5030929;27;101270;-73
2022/07/09 07:14:15;;;;;;;12.15;7.20;;;;;;;;;;5028106;27;100387;-74
2022/07/09 07:16:42;;;;;;;15.07;7.57;;;;;;;;;;5026206;27;100205;-75
2022/07/09 07:19:10;;;;;;;9.75;7.47;;;;;;;;;;5032222;27;100016;-75
2022/07/09 07:21:37;;;;;;;10.32;6.60;;;;;;;;;;5030897;27;98639;-75
2022/07/09 07:24:04;;;;;;;7.38;6.63;;;;;;;;;;5037346;27;100225;-73
2022/07/09 07:26:30;;;;;;;11.45;7.60;;;;;;;;;;5033140;27;99324;-73
2022/07/09 07:28:57;;;;;;;14.30;7.82;;;;;;;;;;5025626;27;99169;-72
2022/07/09 07:31:24;;;;;;;7.13;6.53;;;;;;;;;;5030355;27;99441;-72
2022/07/09 07:33:51;;;;;;;10.43;7.55;;;;;;;;;;5031019;27;100184;-72
2022/07/09 07:36:18;;;;;;;7.40;6.78;;;;;;;;;;5028731;27;100500;-72
2022/07/09 07:38:47;;;;;;;8.00;6.68;;;;;;;;;;5025450;27;100421;-73
2022/07/09 07:41:16;;;;;;;8.40;7.47;;;;;;;;;;5029156;27;98660;-73
2022/07/09 07:43:42;;;;;;;8.20;7.43;;;;;;;;;;5026070;27;100066;-73
2022/07/09 07:46:09;;;;;;;9.90;7.13;;;;;;;;;;5039315;27;101875;-74
2022/07/09 07:48:35;;;;;;;7.10;6.13;;;;;;;;;;5028231;27;99413;-73
2022/07/09 07:51:03;;;;;;;7.80;7.00;;;;;;;;;;5024889;27;100393;-73
2022/07/09 07:53:31;;;;;;;7.25;5.97;;;;;;;;;;5029592;27;98777;-73
2022/07/09 07:55:58;;;;;;;5.82;5.32;;;;;;;;;;5031512;27;98624;-74
2022/07/09 07:58:24;;;;;;;6.00;4.50;;;;;;;;;;5026026;27;100998;-73
2022/07/09 08:00:51;;;;;;;6.82;4.60;;;;;;;;;;5036835;27;99338;-73
2022/07/09 08:03:17;;;;;;;7.40;4.53;;;;;;;;;;5032504;27;99747;-73
2022/07/09 08:05:44;;;;;;;8.43;5.03;;;;;;;;;;5028685;27;99565;-73
2022/07/09 08:08:10;;;;;;;7.53;4.53;;;;;;;;;;5027610;27;99272;-73
2022/07/09 08:10:37;;;;;;;6.03;5.03;;;;;;;;;;5040799;27;99652;-74
2022/07/09 08:13:03;;;;;;;18.77;4.70;;;;;;;;;;5030228;27;99754;-74
2022/07/09 08:15:29;;;;;;;10.95;5.20;;;;;;;;;;5029607;27;99043;-73
2022/07/09 08:17:56;;;;;;;5.25;4.75;;;;;;;;;;5031380;27;98551;-73
2022/07/09 08:20:22;;;;;;;7.72;3.85;;;;;;;;;;5025546;27;99831;-73
2022/07/09 08:22:49;;;;;;;5.40;2.85;;;;;;;;;;5027026;27;99453;-74
2022/07/09 08:25:15;;;;;;;6.78;3.17;;;;;;;;;;5030322;27;100970;-74
2022/07/09 08:27:41;;;;;;;4.07;2.67;;;;;;;;;;5026482;27;100135;-73
2022/07/09 08:30:08;;;;;;;2.72;2.53;;;;;;;;;;5029784;27;99957;-74
2022/07/09 08:32:35;;;;;;;2.83;2.63;;;;;;;;;;5031428;27;99196;-73
2022/07/09 08:35:02;;;;;;;3.28;2.90;;;;;;;;;;5028624;27;100711;-73
2022/07/09 08:37:29;;;;;;;2.20;1.95;;;;;;;;;;5030010;27;100219;-73
2022/07/09 08:39:57;;;;;;;2.88;2.25;;;;;;;;;;5027297;27;99803;-73
2022/07/09 08:42:23;;;;;;;6.18;2.58;;;;;;;;;;5024850;27;100074;-72
2022/07/09 08:44:50;;;;;;;2.83;2.00;;;;;;;;;;5032002;27;101188;-72
2022/07/09 08:47:16;;;;;;;2.85;2.10;;;;;;;;;;5028098;27;100220;-73
2022/07/09 08:49:43;;;;;;;5.10;2.17;;;;;;;;;;5028416;27;100784;-72
2022/07/09 08:52:10;;;;;;;2.22;1.90;;;;;;;;;;5027002;27;100516;-72
2022/07/09 08:54:37;;;;;;;3.15;2.05;;;;;;;;;;5030915;27;100358;-73
2022/07/09 08:57:05;;;;;;;1.55;1.52;;;;;;;;;;5027607;27;100799;-73
2022/07/09 08:59:32;;;;;;;1.02;1.02;;;;;;;;;;5028597;27;100762;-73
2022/07/09 09:02:13;;;;;;;1.60;1.50;;;;;;;;;;5035432;27;100009;-72
2022/07/09 09:04:40;;;;;;;5.00;1.42;;;;;;;;;;5031199;27;100614;-73
2022/07/09 09:07:13;;;;;;;3.40;1.50;;;;;;;;;;5035907;27;98251;-73
2022/07/09 09:09:39;;;;;;;1.67;1.20;;;;;;;;;;5026300;27;100383;-73
2022/07/09 09:12:05;;;;;;;2.03;1.40;;;;;;;;;;5035146;27;100339;-73
2022/07/09 09:14:32;;;;;;;4.10;1.25;;;;;;;;;;5036248;27;99265;-73
2022/07/09 09:17:05;;;;;;;1.42;1.30;;;;;;;;;;5025443;27;100053;-74
2022/07/09 09:19:32;;;;;;;2.00;1.50;;;;;;;;;;5034843;27;99404;-73
2022/07/09 09:21:58;;;;;;;1.92;1.35;;;;;;;;;;5025017;27;99726;-73
2022/07/09 09:24:25;;;;;;;1.40;1.30;;;;;;;;;;5030317;27;100731;-74
2022/07/09 09:26:55;;;;;;;1.92;1.58;;;;;;;;;;5028765;27;98761;-74
2022/07/09 09:29:21;;;;;;;3.50;1.23;;;;;;;;;;5031544;27;101362;-74
2022/07/09 09:31:48;;;;;;;5.72;1.45;;;;;;;;;;5039006;27;99762;-74
2022/07/09 09:34:15;;;;;;;3.35;1.67;;;;;;;;;;5035480;27;100224;-73
2022/07/09 09:36:50;;;;;;;1.48;1.10;;;;;;;;;;5030874;27;99637;-73
2022/07/09 09:39:20;;;;;;;1.98;1.25;;;;;;;;;;5027822;27;100602;-73
2022/07/09 09:42:13;;;;;;;2.65;1.40;;;;;;;;;;5033768;27;99811;-73
2022/07/09 09:44:42;;;;;;;1.55;1.10;;;;;;;;;;5027560;27;100536;-73
2022/07/09 09:47:10;;;;;;;2.38;1.27;;;;;;;;;;5028372;27;98515;-72
2022/07/09 09:49:37;;;;;;;2.00;1.27;;;;;;;;;;5026966;27;98640;-73
2022/07/09 09:52:07;;;;;;;0.95;0.90;;;;;;;;;;5027689;27;100227;-72
2022/07/09 09:54:35;;;;;;;1.95;0.98;;;;;;;;;;5028786;27;98667;-72
2022/07/09 09:57:06;;;;;;;1.60;1.10;;;;;;;;;;5032578;27;97823;-72
2022/07/09 09:59:36;;;;;;;1.15;0.80;;;;;;;;;;5035727;27;101729;-75
2022/07/09 10:02:10;;;;;;;1.02;0.75;;;;;;;;;;5039241;27;99717;-74
2022/07/09 10:04:41;;;;;;;1.40;1.00;;;;;;;;;;5031497;27;99928;-72
2022/07/09 10:07:08;;;;;;;1.67;0.75;;;;;;;;;;5042905;27;98713;-74
2022/07/09 10:09:35;;;;;;;0.95;0.82;;;;;;;;;;5022024;27;100293;-75
2022/07/09 10:12:02;;;;;;;2.85;1.10;;;;;;;;;;5031786;27;100801;-75
2022/07/09 10:14:32;;;;;;;2.58;0.95;;;;;;;;;;5032994;27;100362;-75
2022/07/09 10:17:09;;;;;;;2.63;0.88;;;;;;;;;;5035137;27;100242;-76
2022/07/09 10:19:37;;;;;;;1.33;0.95;;;;;;;;;;5029527;27;99420;-77
2022/07/09 10:22:03;;;;;;;1.20;1.10;;;;;;;;;;5032346;27;99142;-77
2022/07/09 10:24:31;;;;;;;1.58;1.20;;;;;;;;;;5033132;27;99827;-77
2022/07/09 10:27:07;;;;;;;3.58;1.13;;;;;;;;;;5035503;27;98992;-78
2022/07/09 10:29:34;;;;;;;1.98;0.93;;;;;;;;;;5029172;27;101518;-78
2022/07/09 10:32:02;;;;;;;8.40;1.33;;;;;;;;;;5029643;27;101537;-79
2022/07/09 10:34:36;;;;;;;4.85;1.08;;;;;;;;;;5030146;27;98702;-77
2022/07/09 10:37:04;;;;;;;2.83;1.10;;;;;;;;;;5027943;27;100143;-73
2022/07/09 10:39:31;;;;;;;1.95;0.98;;;;;;;;;;5031283;27;98979;-76
2022/07/09 10:42:02;;;;;;;2.15;1.00;;;;;;;;;;5029950;27;98926;-74
2022/07/09 10:44:33;;;;;;;1.35;0.90;;;;;;;;;;5036860;27;99043;-75
2022/07/09 10:47:00;;;;;;;1.77;1.23;;;;;;;;;;5029363;27;99322;-76
2022/07/09 10:49:27;;;;;;;2.92;0.85;;;;;;;;;;5029003;27;100409;-76
2022/07/09 10:52:00;;;;;;;7.78;1.30;;;;;;;;;;5030507;27;100335;-75
2022/07/09 10:54:32;;;;;;;1.70;0.80;;;;;;;;;;5025599;27;99827;-75
2022/07/09 10:56:59;;;;;;;2.45;0.93;;;;;;;;;;5029286;27;100835;-75
2022/07/09 10:59:25;;;;;;;3.13;0.98;;;;;;;;;;5035106;27;100770;-75
2022/07/09 11:01:52;;;;;;;2.70;0.85;;;;;;;;;;5031647;27;99415;-75
2022/07/09 11:04:28;;;;;;;1.17;0.90;;;;;;;;;;5029743;27;100247;-78
2022/07/09 11:06:57;;;;;;;1.60;1.00;;;;;;;;;;5031934;27;100157;-75
2022/07/09 11:09:30;;;;;;;4.00;0.70;;;;;;;;;;5029077;27;98985;-73
2022/07/09 11:11:56;;;;;;;1.85;0.80;;;;;;;;;;5028281;27;98579;-73
2022/07/09 11:14:23;;;;;;;5.00;1.05;;;;;;;;;;5027951;27;100477;-75
2022/07/09 11:16:54;;;;;;;6.75;1.20;;;;;;;;;;5027944;27;100026;-74
2022/07/09 11:19:21;;;;;;;3.67;1.00;;;;;;;;;;5028355;27;101159;-73
2022/07/09 11:21:48;;;;;;;1.42;1.00;;;;;;;;;;5030108;27;98880;-72
2022/07/09 11:24:16;;;;;;;1.48;0.80;;;;;;;;;;5030402;27;99538;-72
2022/07/09 11:26:42;;;;;;;1.50;0.88;;;;;;;;;;5033561;27;100281;-72
2022/07/09 11:29:09;;;;;;;4.13;1.25;;;;;;;;;;5038536;27;99184;-72
2022/07/09 11:31:36;;;;;;;4.93;1.20;;;;;;;;;;5037026;27;99423;-72
2022/07/09 11:34:15;;;;;;;4.82;1.10;;;;;;;;;;5031184;27;99065;-73
2022/07/09 11:36:43;;;;;;;4.25;1.10;;;;;;;;;;5029803;27;99279;-74
2022/07/09 11:39:21;;;;;;;3.38;1.30;;;;;;;;;;5030075;27;99713;-73
2022/07/09 11:41:48;;;;;;;3.38;1.20;;;;;;;;;;5034852;27;99543;-73
2022/07/09 11:44:23;;;;;;;2.65;1.25;;;;;;;;;;5041173;27;100085;-73
2022/07/09 11:47:08;;;;;;;1.52;0.80;;;;;;;;;;5044508;27;100628;-73
2022/07/09 11:49:39;;;;;;;4.03;1.15;;;;;;;;;;5040558;27;99138;-73
2022/07/09 11:52:19;;;;;;;4.68;1.48;;;;;;;;;;5032729;27;99398;-74
2022/07/09 11:54:58;;;;;;;3.08;1.20;;;;;;;;;;5030520;27;98556;-73
2022/07/09 11:57:24;;;;;;;5.30;1.48;;;;;;;;;;5037845;27;99677;-73
2022/07/09 11:59:51;;;;;;;3.00;1.30;;;;;;;;;;5045024;27;99441;-74
2022/07/09 12:02:24;;;;;;;2.00;1.20;;;;;;;;;;5030051;27;97827;-74
2022/07/09 12:04:51;;;;;;;4.13;1.20;;;;;;;;;;5028980;27;98601;-73
2022/07/09 12:07:17;;;;;;;4.85;1.10;;;;;;;;;;5028121;27;100489;-74
2022/07/09 12:09:44;;;;;;;2.67;1.23;;;;;;;;;;5037829;27;100216;-76
2022/07/09 12:12:10;;;;;;;3.65;1.30;;;;;;;;;;5044679;27;100930;-73
2022/07/09 12:14:36;;;;;;;2.45;1.25;;;;;;;;;;5035105;27;98548;-73
2022/07/09 12:17:03;;;;;;;4.32;1.42;;;;;;;;;;5050045;27;100384;-73
2022/07/09 12:19:30;;;;;;;4.95;1.20;;;;;;;;;;5033882;27;100345;-73
2022/07/09 12:21:56;;;;;;;3.08;1.20;;;;;;;;;;5037810;27;98563;-73
2022/07/09 12:24:24;;;;;;;2.80;1.15;;;;;;;;;;5035738;27;100289;-73
2022/07/09 12:26:51;;;;;;;5.20;1.30;;;;;;;;;;5034654;27;99669;-73
2022/07/09 12:29:37;;;;;;;2.17;0.90;;;;;;;;;;5037042;27;98607;-73
2022/07/09 12:32:05;;;;;;;4.05;1.30;;;;;;;;;;5026403;27;99206;-73
2022/07/09 12:34:32;;;;;;;4.82;1.40;;;;;;;;;;5031404;27;101884;-73
2022/07/09 12:37:04;;;;;;;;;;;;;;;;;;5033080;27;100966;-73
2022/07/09 12:39:31;;;;;;;4.55;1.10;;;;;;;;;;5029313;27;129269;-73
2022/07/09 12:41:58;;;;;;;2.85;1.20;;;;;;;;;;5029147;27;98511;-73
2022/07/09 12:44:26;;;;;;;3.25;1.20;;;;;;;;;;5036563;27;99033;-73
2022/07/09 12:46:54;;;;;;;3.85;1.00;;;;;;;;;;5027938;27;99531;-73
2022/07/09 12:49:20;;;;;;;4.00;1.38;;;;;;;;;;5028889;27;98586;-74
2022/07/09 12:51:47;;;;;;;8.05;1.20;;;;;;;;;;5029340;27;99260;-73
2022/07/09 12:54:13;;;;;;;4.28;1.15;;;;;;;;;;5038549;27;100350;-73
2022/07/09 12:56:40;;;;;;;3.85;1.23;;;;;;;;;;5032128;27;98956;-73
2022/07/09 12:59:26;;;;;;;1.88;1.00;;;;;;;;;;5036001;27;100901;-73
2022/07/09 13:01:53;;;;;;;2.63;0.95;;;;;;;;;;5033689;27;100313;-74
2022/07/09 13:04:19;;;;;;;4.88;1.73;;;;;;;;;;5041789;27;100490;-73
2022/07/09 13:06:46;;;;;;;2.10;1.23;;;;;;;;;;5028016;27;99180;-73
2022/07/09 13:09:12;;;;;;;2.63;1.02;;;;;;;;;;5038825;27;98615;-75
2022/07/09 13:11:39;;;;;;;6.10;1.38;;;;;;;;;;5031866;27;99202;-74
2022/07/09 13:14:05;;;;;;;4.18;1.98;;;;;;;;;;5031204;27;100457;-73
2022/07/09 13:16:34;;;;;;;3.28;2.22;;;;;;;;;;5028416;27;100332;-74
2022/07/09 13:19:00;;;;;;;3.25;1.00;;;;;;;;;;5030275;27;100203;-73
2022/07/09 13:21:26;;;;;;;5.20;1.33;;;;;;;;;;5028224;27;98541;-73
2022/07/09 13:23:53;;;;;;;3.72;1.75;;;;;;;;;;5028702;27;100013;-74
2022/07/09 13:26:19;;;;;;;2.22;0.98;;;;;;;;;;5027329;27;99619;-73
2022/07/09 13:28:46;;;;;;;3.70;1.25;;;;;;;;;;5034782;27;98574;-73
2022/07/09 13:31:12;;;;;;;4.82;1.50;;;;;;;;;;5035885;27;100186;-73
2022/07/09 13:33:39;;;;;;;5.80;1.17;;;;;;;;;;5031352;27;99321;-73
2022/07/09 13:36:05;;;;;;;8.95;2.25;;;;;;;;;;5034785;27;98942;-71
2022/07/09 13:38:32;;;;;;;8.93;1.92;;;;;;;;;;5039452;27;99165;-73
2022/07/09 13:40:59;;;;;;;3.00;1.48;;;;;;;;;;5039596;27;97956;-74
2022/07/09 13:43:26;;;;;;;7.50;1.70;;;;;;;;;;5035302;27;100420;-73
2022/07/09 13:46:02;;;;;;;5.35;1.60;;;;;;;;;;5050656;27;99469;-73
2022/07/09 13:48:28;;;;;;;5.28;1.73;;;;;;;;;;5033069;27;99834;-73
2022/07/09 13:50:55;;;;;;;4.03;1.58;;;;;;;;;;5036394;27;100820;-73
2022/07/09 13:53:21;;;;;;;11.20;2.20;;;;;;;;;;5036125;27;100503;-73
2022/07/09 13:55:47;;;;;;;12.32;1.88;;;;;;;;;;5051051;27;98502;-74
2022/07/09 13:58:14;;;;;;;6.05;1.85;;;;;;;;;;5048607;27;99148;-73
2022/07/09 14:00:40;;;;;;;6.35;1.65;;;;;;;;;;5035494;27;100201;-74
2022/07/09 14:03:06;;;;;;;5.72;1.77;;;;;;;;;;5031855;27;99309;-73
2022/07/09 14:05:35;;;;;;;4.53;1.50;;;;;;;;;;5032267;27;98789;-74
2022/07/09 14:08:01;;;;;;;6.43;1.50;;;;;;;;;;5039350;27;98529;-72
2022/07/09 14:10:28;;;;;;;4.07;1.40;;;;;;;;;;5030727;27;99380;-72
2022/07/09 14:12:55;;;;;;;6.90;2.17;;;;;;;;;;5030143;27;100017;-73
2022/07/09 14:15:22;;;;;;;9.32;1.60;;;;;;;;;;5030764;27;98961;-73
2022/07/09 14:17:49;;;;;;;3.53;1.17;;;;;;;;;;5030998;27;99432;-73
2022/07/09 14:20:15;;;;;;;4.65;1.70;;;;;;;;;;5040518;27;99424;-73
2022/07/09 14:22:42;;;;;;;6.88;1.60;;;;;;;;;;5039136;27;98529;-73
2022/07/09 14:25:08;;;;;;;2.85;1.20;;;;;;;;;;5036694;27;99550;-73
2022/07/09 14:27:34;;;;;;;3.35;1.33;;;;;;;;;;5039193;27;98692;-73
2022/07/09 14:30:02;;;;;;;4.28;1.25;;;;;;;;;;5035979;27;101187;-72